Terminal Aerodrome Forecast
Issued by NWS Detroit/Pontiac, MI

Home | Current Version | Previous Version | Text Only | Print | Product List | Glossary On
Versions: 1 2 3 4 5 6 7 8 9 10 11 12 13 14 15 16 17 18 19
000
FTUS43 KDTX 172320
TAFFNT
TAF
KFNT 172320Z 1800/1824 17012KT P6SM OVC090
     FM180200 17014KT 6SM -SHRA SCT030 BKN050 OVC080 WS015/22045KT
      TEMPO 1805/1807 1SM TSRA BR OVC008CB
     FM180800 17010KT 2SM -SHRA BR OVC012
     FM181200 16005KT 2SM -SHRA BR OVC005
     FM181900 34014G24KT 5SM SHRA BKN008 OVC020=

USA.gov is the U.S. government's official web portal to all federal, state and local government web resources and services.